Terminal Aerodrome Forecast
Issued by NWS

Current Version | Previous Version | Graphics & Text | Print | Product List | Glossary Off
Versions: 1 2 3 4 5 6 7 8 9 10 11 12 13 14 15 16 17 18 19

029
FTUS41 KILN 110537
TAFLCK
TAF
KLCK 110537Z 1106/1206 13003KT P6SM VCSH OVC040
     FM110700 14005KT 4SM -SN OVC025
     FM111100 15008KT P6SM OVC040
     FM111800 18012G18KT P6SM -RA OVC035
     FM120300 20010KT 4SM -RA BR OVC020=

USA.gov is the U.S. government's official web portal to all federal, state and local government web resources and services.